Time;durP1;ratioP1;P1;durP2;ratioP2;P2;SDS_P1;SDS_P2;PMS_P1;PMS_P2;Temp;Humidity;BMP_temperature;BMP_pressure;BME280_temperature;BME280_humidity;BME280_pressure;Samples;Min_cycle;Max_cycle;Signal;HPM_P1;HPM_P2
2022/06/01 03:00:23;;;;;;;1.02;0.60;;;22.50;42.60;;;;;;5978759;23;46503;-60
2022/06/01 03:02:53;;;;;;;1.00;0.83;;;22.50;42.60;;;;;;4867663;28;45611;-58
2022/06/01 03:05:22;;;;;;;0.98;0.90;;;22.50;42.60;;;;;;4876661;28;45478;-59
2022/06/01 03:07:47;;;;;;;0.82;0.80;;;22.50;42.60;;;;;;4885795;28;45157;-59
2022/06/01 03:10:13;;;;;;;0.50;0.50;;;22.50;42.60;;;;;;4878095;29;45241;-58
2022/06/01 03:12:39;;;;;;;1.17;0.90;;;22.50;42.60;;;;;;4880507;29;45523;-60
2022/06/01 03:15:06;;;;;;;1.05;0.65;;;22.50;42.60;;;;;;4880561;28;45692;-58
2022/06/01 03:17:31;;;;;;;0.52;0.52;;;22.50;42.60;;;;;;4898330;28;45294;-60
2022/06/01 03:19:57;;;;;;;1.63;0.88;;;22.50;42.60;;;;;;4899047;28;45871;-58
2022/06/01 03:22:23;;;;;;;1.52;0.75;;;22.50;42.70;;;;;;4879738;29;45489;-61
2022/06/01 03:24:49;;;;;;;1.45;0.70;;;22.50;42.60;;;;;;4884227;28;45301;-59
2022/06/01 03:27:14;;;;;;;0.68;0.63;;;22.50;42.70;;;;;;4895400;28;45021;-58
2022/06/01 03:29:40;;;;;;;0.75;0.60;;;22.50;42.60;;;;;;4900221;28;45523;-58
2022/06/01 03:32:06;;;;;;;0.80;0.68;;;22.50;42.60;;;;;;4894560;28;45276;-59
2022/06/01 03:34:32;;;;;;;0.80;0.80;;;22.40;42.70;;;;;;4901249;28;45048;-58
2022/06/01 03:36:58;;;;;;;1.45;0.90;;;22.50;42.70;;;;;;4901559;28;46057;-59
2022/06/01 03:39:23;;;;;;;0.68;0.68;;;22.50;42.70;;;;;;4900628;28;46938;-59
2022/06/01 03:41:49;;;;;;;0.70;0.68;;;22.40;42.80;;;;;;4898302;28;45267;-58
2022/06/01 03:47:03;;;;;;;0.90;0.57;;;22.40;42.80;;;;;;4900395;28;45187;-58
2022/06/01 03:49:28;;;;;;;0.70;0.68;;;22.40;42.80;;;;;;4884794;28;47150;-59
2022/06/01 03:51:54;;;;;;;0.47;0.47;;;22.40;42.80;;;;;;4898223;28;45044;-59
2022/06/01 03:54:20;;;;;;;0.90;0.70;;;22.40;42.80;;;;;;4866630;29;45499;-59
2022/06/01 03:56:46;;;;;;;0.60;0.60;;;22.40;42.80;;;;;;4898658;28;45771;-58
2022/06/01 03:59:11;;;;;;;0.68;0.68;;;22.40;42.80;;;;;;4900545;28;47019;-59
2022/06/01 04:01:37;;;;;;;0.70;0.70;;;22.40;42.80;;;;;;4895715;28;45456;-59
2022/06/01 04:04:02;;;;;;;0.73;0.70;;;22.40;42.80;;;;;;4898696;28;47229;-59
2022/06/01 04:06:28;;;;;;;0.82;0.63;;;22.40;42.90;;;;;;4900996;28;44930;-60
2022/06/01 04:08:54;;;;;;;1.05;0.75;;;22.40;42.90;;;;;;4898795;28;45631;-60
2022/06/01 04:11:19;;;;;;;1.75;0.60;;;22.40;42.90;;;;;;4900280;28;45455;-59
2022/06/01 04:13:45;;;;;;;0.60;0.60;;;22.40;42.80;;;;;;4899866;28;45126;-59
2022/06/01 04:16:11;;;;;;;0.65;0.65;;;22.40;42.90;;;;;;4898865;28;45359;-59
2022/06/01 04:18:37;;;;;;;0.82;0.77;;;22.40;42.90;;;;;;4898691;28;44898;-60
2022/06/01 04:21:02;;;;;;;0.70;0.70;;;22.40;42.90;;;;;;4899541;28;45485;-59
2022/06/01 04:23:28;;;;;;;0.70;0.70;;;22.40;42.90;;;;;;4898238;28;45547;-59
2022/06/01 04:25:53;;;;;;;0.90;0.50;;;22.40;42.90;;;;;;4896036;28;46899;-59
2022/06/01 04:28:19;;;;;;;0.90;0.80;;;22.40;42.90;;;;;;4897464;28;46160;-59
2022/06/01 04:30:45;;;;;;;1.02;0.88;;;22.40;43.00;;;;;;4887603;28;45357;-59
2022/06/01 04:33:10;;;;;;;0.75;0.63;;;22.40;43.00;;;;;;4897439;28;45598;-59
2022/06/01 04:35:36;;;;;;;0.55;0.55;;;22.40;43.00;;;;;;4900511;28;45338;-60
2022/06/01 04:38:13;;;;;;;0.90;0.75;;;22.40;43.10;;;;;;4897449;28;45776;-59
2022/06/01 04:40:49;;;;;;;1.33;0.73;;;22.40;43.60;;;;;;4894220;28;44937;-58
2022/06/01 04:43:16;;;;;;;0.73;0.73;;;22.30;43.10;;;;;;4899358;28;45205;-60
2022/06/01 04:45:42;;;;;;;0.60;0.60;;;22.40;43.10;;;;;;4898438;28;45587;-58
2022/06/01 04:48:08;;;;;;;0.60;0.60;;;22.40;43.10;;;;;;4880361;29;46402;-59
2022/06/01 04:50:34;;;;;;;0.90;0.80;;;22.30;43.10;;;;;;4900247;28;45576;-59
2022/06/01 04:53:00;;;;;;;0.95;0.75;;;22.40;43.20;;;;;;4898318;28;45084;-59
2022/06/01 04:55:26;;;;;;;0.98;0.70;;;22.30;43.10;;;;;;4896752;28;45466;-60
2022/06/01 04:57:51;;;;;;;0.70;0.70;;;22.30;43.10;;;;;;4895520;28;46287;-61
2022/06/01 05:00:17;;;;;;;0.52;0.52;;;22.40;43.20;;;;;;4895286;28;45165;-59
2022/06/01 05:02:43;;;;;;;0.70;0.70;;;22.40;43.20;;;;;;4895120;28;46380;-58
2022/06/01 05:05:09;;;;;;;0.68;0.68;;;22.40;43.90;;;;;;4896014;28;45426;-58
2022/06/01 05:07:34;;;;;;;0.63;0.60;;;22.30;43.20;;;;;;4900472;28;45910;-59
2022/06/01 05:10:00;;;;;;;1.65;0.80;;;22.30;43.30;;;;;;4899654;29;44707;-58
2022/06/01 05:12:25;;;;;;;0.68;0.68;;;22.30;43.30;;;;;;4895270;28;45461;-59
2022/06/01 05:14:51;;;;;;;0.68;0.68;;;22.40;43.40;;;;;;4898838;28;45623;-60
2022/06/01 05:17:19;;;;;;;0.60;0.60;;;22.40;43.30;;;;;;4907649;28;45789;-60
2022/06/01 05:19:44;;;;;;;0.80;0.80;;;22.40;43.30;;;;;;4919467;28;45043;-59
2022/06/01 05:22:10;;;;;;;0.77;0.70;;;22.50;43.10;;;;;;4917603;28;45362;-60
2022/06/01 05:24:35;;;;;;;0.80;0.75;;;22.50;42.90;;;;;;4915462;28;45055;-59
2022/06/01 05:27:01;;;;;;;0.98;0.60;;;22.60;42.90;;;;;;4917720;28;46169;-59
2022/06/01 05:29:28;;;;;;;0.85;0.68;;;22.70;42.70;;;;;;4901468;28;45293;-59
2022/06/01 05:31:54;;;;;;;1.05;0.60;;;22.80;43.20;;;;;;4916615;28;45608;-59
2022/06/01 05:34:20;;;;;;;0.60;0.60;;;22.90;42.40;;;;;;4918546;28;45570;-59
2022/06/01 05:36:45;;;;;;;1.10;0.80;;;22.90;42.30;;;;;;4915979;28;45809;-60
2022/06/01 05:39:11;;;;;;;0.77;0.70;;;23.00;42.20;;;;;;4919190;28;45137;-58
2022/06/01 05:41:36;;;;;;;0.98;0.80;;;22.90;42.10;;;;;;4918673;28;45363;-58
2022/06/01 05:44:02;;;;;;;0.90;0.80;;;23.00;42.20;;;;;;4918499;28;45541;-58
2022/06/01 05:46:28;;;;;;;1.98;0.90;;;22.90;42.30;;;;;;4916468;28;46148;-58
2022/06/01 05:48:53;;;;;;;0.75;0.75;;;22.90;42.30;;;;;;4916624;28;45240;-59
2022/06/01 05:51:19;;;;;;;1.02;0.68;;;22.90;42.40;;;;;;4918400;28;45174;-59
2022/06/01 05:53:44;;;;;;;1.02;0.60;;;22.90;42.50;;;;;;4919125;28;45750;-58
2022/06/01 05:56:10;;;;;;;0.75;0.75;;;22.90;42.60;;;;;;4916870;28;45368;-59
2022/06/01 05:58:36;;;;;;;0.70;0.70;;;22.80;42.60;;;;;;4884296;28;45170;-58
2022/06/01 06:01:05;;;;;;;0.80;0.70;;;22.80;42.60;;;;;;4917281;28;45098;-59
2022/06/01 06:03:31;;;;;;;0.55;0.55;;;22.80;42.70;;;;;;4917144;28;45737;-58
2022/06/01 06:06:13;;;;;;;0.80;0.77;;;22.80;42.60;;;;;;4915410;28;45525;-60
2022/06/01 06:09:00;;;;;;;0.93;0.70;;;22.80;42.60;;;;;;4896979;28;45292;-58
2022/06/01 06:11:28;;;;;;;1.00;0.80;;;22.80;42.60;;;;;;4898635;28;45637;-59
2022/06/01 06:13:54;;;;;;;0.60;0.60;;;22.80;42.60;;;;;;4917075;28;44725;-59
2022/06/01 06:16:20;;;;;;;1.60;0.68;;;22.90;42.60;;;;;;4917213;28;46060;-57
2022/06/01 06:18:45;;;;;;;0.60;0.60;;;22.90;42.60;;;;;;4916096;28;45011;-58
2022/06/01 06:21:11;;;;;;;1.05;0.95;;;22.90;42.60;;;;;;4915485;28;45485;-59
2022/06/01 06:23:37;;;;;;;0.77;0.77;;;22.90;42.60;;;;;;4917531;28;45699;-58
2022/06/01 06:26:03;;;;;;;0.95;0.80;;;22.90;42.60;;;;;;4915946;28;45636;-59
2022/06/01 06:28:29;;;;;;;1.08;0.80;;;22.90;42.70;;;;;;4916582;28;45445;-57
2022/06/01 06:30:54;;;;;;;0.93;0.75;;;22.90;42.60;;;;;;4913386;28;45260;-58
2022/06/01 06:33:20;;;;;;;0.80;0.70;;;23.00;42.70;;;;;;4917083;28;45438;-57
2022/06/01 06:35:46;;;;;;;1.00;0.70;;;22.90;42.70;;;;;;4916978;28;45891;-59
2022/06/01 06:38:11;;;;;;;0.90;0.90;;;23.00;42.80;;;;;;4913494;28;44949;-58
2022/06/01 06:40:37;;;;;;;1.73;0.75;;;23.00;42.70;;;;;;4896980;28;45416;-59
2022/06/01 06:43:04;;;;;;;1.67;0.85;;;23.00;42.80;;;;;;4912309;28;45654;-60
2022/06/01 06:45:29;;;;;;;0.90;0.70;;;23.00;42.80;;;;;;4916866;28;46144;-60
2022/06/01 06:47:55;;;;;;;1.52;0.80;;;23.00;42.80;;;;;;4917634;28;45525;-61
2022/06/01 06:50:21;;;;;;;0.82;0.70;;;23.00;42.80;;;;;;4911626;28;45557;-61
2022/06/01 06:52:47;;;;;;;0.90;0.80;;;23.10;43.40;;;;;;4898417;28;44969;-60
2022/06/01 06:55:13;;;;;;;0.70;0.70;;;23.10;42.80;;;;;;4917628;28;46358;-58
2022/06/01 06:57:39;;;;;;;0.70;0.70;;;23.10;42.70;;;;;;4914630;28;45379;-61
2022/06/01 07:00:07;;;;;;;0.93;0.88;;;23.10;42.70;;;;;;4919183;28;45553;-58
2022/06/01 07:02:34;;;;;;;0.80;0.80;;;23.20;42.80;;;;;;4920030;28;45029;-58
2022/06/01 07:04:59;;;;;;;0.82;0.80;;;23.20;42.70;;;;;;4917254;28;45999;-59
2022/06/01 07:07:25;;;;;;;1.23;0.93;;;23.20;42.70;;;;;;4918528;28;45215;-58
2022/06/01 07:09:50;;;;;;;1.02;0.70;;;23.30;42.80;;;;;;4921742;28;44639;-60
2022/06/01 07:12:16;;;;;;;0.77;0.77;;;23.30;42.70;;;;;;4915475;28;45245;-60
2022/06/01 07:14:41;;;;;;;4.40;0.85;;;23.30;42.70;;;;;;4917636;28;45814;-60
2022/06/01 07:17:07;;;;;;;0.70;0.70;;;23.30;42.70;;;;;;4921452;28;45549;-57
2022/06/01 07:19:33;;;;;;;1.95;0.77;;;23.30;42.70;;;;;;4922024;28;45233;-59
2022/06/01 07:21:58;;;;;;;0.80;0.80;;;23.40;42.70;;;;;;4919554;28;45424;-60
2022/06/01 07:24:24;;;;;;;1.08;1.00;;;23.40;42.70;;;;;;4902109;28;46231;-60
2022/06/01 07:26:49;;;;;;;1.88;0.90;;;23.40;42.60;;;;;;4921285;28;45324;-61
2022/06/01 07:29:18;;;;;;;2.22;0.90;;;23.40;42.60;;;;;;4925723;28;44884;-61
2022/06/01 07:31:44;;;;;;;1.08;0.90;;;23.40;42.60;;;;;;4923562;28;44755;-58
2022/06/01 07:34:10;;;;;;;1.00;0.90;;;23.50;42.70;;;;;;4920047;28;45944;-57
2022/06/01 07:36:35;;;;;;;1.15;1.05;;;23.50;42.60;;;;;;4921200;28;45316;-58
2022/06/01 07:44:22;;;;;;;0.80;0.80;;;23.60;42.50;;;;;;4919625;28;46240;-58
2022/06/01 07:46:47;;;;;;;1.15;0.75;;;23.60;42.50;;;;;;4920270;28;45418;-59
2022/06/01 07:49:13;;;;;;;0.60;0.60;;;23.60;42.50;;;;;;4920781;28;45286;-57
2022/06/01 07:51:39;;;;;;;0.88;0.80;;;23.60;42.50;;;;;;4918532;28;45547;-57
2022/06/01 07:54:05;;;;;;;1.67;1.00;;;23.70;42.60;;;;;;4898677;28;46120;-59
2022/06/01 07:56:31;;;;;;;0.93;0.80;;;23.70;42.40;;;;;;4918774;28;45186;-58
2022/06/01 07:58:56;;;;;;;1.42;0.90;;;23.70;42.40;;;;;;4923214;28;45304;-57
2022/06/01 08:01:25;;;;;;;1.25;0.90;;;23.70;42.50;;;;;;4916697;28;45407;-58
2022/06/01 08:04:00;;;;;;;0.70;0.70;;;23.80;42.50;;;;;;4916313;28;45957;-57
2022/06/01 08:06:26;;;;;;;0.95;0.70;;;23.80;42.50;;;;;;4919609;28;45281;-58
2022/06/01 08:08:52;;;;;;;1.15;0.90;;;23.80;42.50;;;;;;4919750;28;45426;-60
2022/06/01 08:11:17;;;;;;;0.88;0.88;;;23.80;42.50;;;;;;4919491;28;44715;-59
2022/06/01 08:13:43;;;;;;;1.08;0.85;;;23.80;42.40;;;;;;4919569;28;47093;-59
2022/06/01 08:16:09;;;;;;;1.60;0.70;;;23.90;42.40;;;;;;4919128;28;45522;-59
2022/06/01 08:18:34;;;;;;;1.30;1.08;;;23.80;42.30;;;;;;4905901;28;45312;-58
2022/06/01 08:21:00;;;;;;;1.30;0.70;;;23.90;42.30;;;;;;4918762;28;46637;-60
2022/06/01 08:23:27;;;;;;;0.90;0.60;;;24.00;42.40;;;;;;4898197;28;46850;-60
2022/06/01 08:25:53;;;;;;;1.45;0.80;;;24.00;42.30;;;;;;4917868;28;45025;-59
2022/06/01 08:28:18;;;;;;;1.10;0.77;;;24.00;42.30;;;;;;4902764;28;45289;-59
2022/06/01 08:30:44;;;;;;;2.08;0.75;;;24.00;42.20;;;;;;4900749;28;46194;-61
2022/06/01 08:33:10;;;;;;;1.15;0.70;;;24.00;42.10;;;;;;4919260;28;46141;-60
2022/06/01 08:35:37;;;;;;;1.13;0.68;;;24.10;42.10;;;;;;4900961;28;45550;-60
2022/06/01 08:38:03;;;;;;;1.27;0.90;;;24.10;42.00;;;;;;4918957;28;45070;-59
2022/06/01 08:40:32;;;;;;;0.80;0.80;;;24.10;41.90;;;;;;4919101;28;45216;-59
2022/06/01 08:43:05;;;;;;;1.38;0.90;;;24.10;41.80;;;;;;4901499;28;45486;-59
2022/06/01 08:45:31;;;;;;;1.00;1.00;;;24.10;41.80;;;;;;4895237;28;44674;-59
2022/06/01 08:47:57;;;;;;;0.75;0.75;;;24.10;41.80;;;;;;4918695;28;45381;-60
2022/06/01 08:50:30;;;;;;;1.10;0.80;;;24.10;41.80;;;;;;4918137;28;45213;-61
2022/06/01 08:52:58;;;;;;;1.27;0.82;;;24.10;41.70;;;;;;4918451;28;46281;-60
2022/06/01 08:55:24;;;;;;;1.23;0.63;;;24.10;41.70;;;;;;4904176;28;45479;-59
2022/06/01 08:58:16;;;;;;;1.25;0.75;;;24.10;41.80;;;;;;4915881;28;45512;-60
2022/06/01 09:00:50;;;;;;;1.02;0.73;;;24.20;41.80;;;;;;4903806;28;46238;-58
2022/06/01 09:03:21;;;;;;;0.70;0.70;;;24.10;41.80;;;;;;4887409;28;45945;-58
2022/06/01 09:05:52;;;;;;;0.80;0.80;;;24.10;41.70;;;;;;4916181;28;45206;-60
2022/06/01 09:08:50;;;;;;;0.98;0.88;;;24.10;41.50;;;;;;4901636;28;45281;-59
2022/06/01 09:11:33;;;;;;;0.98;0.85;;;24.20;41.70;;;;;;4885741;28;45911;-59
2022/06/01 09:14:13;;;;;;;0.90;0.90;;;24.10;41.70;;;;;;4898912;28;45985;-59
2022/06/01 09:16:41;;;;;;;0.90;0.80;;;24.20;41.60;;;;;;4913733;28;45062;-59
2022/06/01 09:19:16;;;;;;;1.40;0.90;;;24.20;41.50;;;;;;4901277;28;45361;-59
2022/06/01 09:24:32;;;;;;;0.80;0.80;;;24.20;41.50;;;;;;4917832;28;46131;-60
2022/06/01 09:26:58;;;;;;;0.70;0.70;;;24.20;41.50;;;;;;4917366;28;45592;-58
2022/06/01 09:29:27;;;;;;;0.95;0.80;;;24.20;41.40;;;;;;4919001;28;45486;-58
2022/06/01 09:32:06;;;;;;;0.80;0.68;;;24.20;41.30;;;;;;4920409;28;45446;-59
2022/06/01 09:34:38;;;;;;;0.60;0.60;;;24.20;41.20;;;;;;4915725;28;46221;-60
2022/06/01 09:37:05;;;;;;;1.10;0.75;;;24.20;41.30;;;;;;4898621;28;45197;-59
2022/06/01 09:39:31;;;;;;;0.80;0.73;;;24.20;41.20;;;;;;4919471;28;44893;-58
2022/06/01 09:42:12;;;;;;;1.85;1.00;;;24.30;41.40;;;;;;4918125;28;45276;-60
2022/06/01 09:44:40;;;;;;;1.02;0.90;;;24.30;40.90;;;;;;4916178;28;45666;-61
2022/06/01 09:47:06;;;;;;;0.80;0.80;;;24.30;41.00;;;;;;4886901;28;45345;-62
2022/06/01 09:49:33;;;;;;;1.05;0.90;;;24.30;41.10;;;;;;4904296;28;45650;-61
2022/06/01 09:52:23;;;;;;;1.33;0.80;;;24.30;41.10;;;;;;4899491;28;45148;-60
2022/06/01 09:54:54;;;;;;;1.90;1.10;;;24.30;40.80;;;;;;4895533;28;45585;-61
2022/06/01 09:57:33;;;;;;;1.25;0.90;;;24.30;40.90;;;;;;4911510;28;44694;-60
2022/06/01 10:08:24;;;;;;;0.70;0.68;;;24.40;40.60;;;;;;4916787;28;45437;-59
2022/06/01 10:11:09;;;;;;;1.52;0.80;;;24.40;40.70;;;;;;4898249;28;45333;-60
2022/06/01 10:13:46;;;;;;;1.20;0.75;;;24.40;40.60;;;;;;4917715;28;45639;-59
2022/06/01 10:16:35;;;;;;;0.77;0.73;;;24.40;40.60;;;;;;4900202;28;45971;-59
2022/06/01 10:19:01;;;;;;;0.93;0.60;;;24.50;40.60;;;;;;4899137;28;46118;-57
2022/06/01 10:21:29;;;;;;;1.00;0.85;;;24.40;40.60;;;;;;4898266;28;45314;-59
2022/06/01 10:24:04;;;;;;;3.58;0.82;;;24.40;40.50;;;;;;4894250;28;45521;-60
2022/06/01 10:26:31;;;;;;;1.40;1.00;;;24.40;40.40;;;;;;4898783;28;44990;-59
2022/06/01 10:29:07;;;;;;;1.33;0.95;;;24.50;40.40;;;;;;4868990;28;45500;-58
2022/06/01 10:31:42;;;;;;;1.13;0.70;;;24.50;40.40;;;;;;4885320;28;45233;-58
2022/06/01 10:34:15;;;;;;;2.47;0.70;;;24.50;40.30;;;;;;4897237;28;44689;-59
2022/06/01 10:36:51;;;;;;;1.17;0.73;;;24.50;40.20;;;;;;4915575;28;45846;-59
2022/06/01 10:39:24;;;;;;;3.38;0.80;;;24.50;40.30;;;;;;4884164;28;45516;-59
2022/06/01 10:42:21;;;;;;;4.50;0.80;;;24.50;40.10;;;;;;4914858;28;45194;-58
2022/06/01 10:45:02;;;;;;;0.60;0.60;;;24.50;40.20;;;;;;4871924;28;46011;-60
2022/06/01 10:47:49;;;;;;;3.30;0.90;;;24.50;40.10;;;;;;4916644;28;45479;-58
2022/06/01 10:50:16;;;;;;;1.58;0.70;;;24.50;40.00;;;;;;4885711;28;45880;-59
2022/06/01 10:52:51;;;;;;;0.75;0.70;;;24.50;40.00;;;;;;4898117;28;45029;-59
2022/06/01 10:55:32;;;;;;;1.95;0.90;;;24.50;39.90;;;;;;4885468;28;44971;-59
2022/06/01 10:57:59;;;;;;;2.47;0.90;;;24.50;39.80;;;;;;4865949;28;47005;-59
2022/06/01 11:00:44;;;;;;;0.85;0.77;;;24.50;39.80;;;;;;4897741;28;44769;-60
2022/06/01 11:03:22;;;;;;;1.02;0.82;;;24.50;39.70;;;;;;4913689;28;45272;-59
2022/06/01 11:06:02;;;;;;;0.80;0.80;;;24.60;39.70;;;;;;4920273;28;45201;-58
2022/06/01 11:08:38;;;;;;;1.05;0.73;;;24.60;39.60;;;;;;4915120;28;45907;-59
2022/06/01 11:11:24;;;;;;;2.50;0.80;;;24.60;39.60;;;;;;4895630;28;45155;-59
2022/06/01 11:14:09;;;;;;;2.38;1.08;;;24.60;39.40;;;;;;4915090;28;44969;-59
2022/06/01 11:17:01;;;;;;;1.02;0.80;;;24.60;39.60;;;;;;4897494;28;45297;-59
2022/06/01 11:19:45;;;;;;;1.75;0.70;;;24.60;39.50;;;;;;4916196;28;46151;-60
2022/06/01 11:22:16;;;;;;;1.25;0.80;;;24.60;39.50;;;;;;4916166;28;45088;-61
2022/06/01 11:24:58;;;;;;;0.98;0.73;;;24.60;39.30;;;;;;4915893;28;45707;-60
2022/06/01 11:27:30;;;;;;;1.45;0.82;;;24.60;39.20;;;;;;4887562;28;45269;-59
2022/06/01 11:30:11;;;;;;;1.27;0.93;;;24.60;39.60;;;;;;4884980;28;46123;-60
2022/06/01 11:32:39;;;;;;;0.70;0.70;;;24.70;39.50;;;;;;4895442;28;45609;-60
2022/06/01 11:35:09;;;;;;;0.63;0.60;;;24.70;40.10;;;;;;4899565;28;45681;-59
2022/06/01 11:37:39;;;;;;;0.80;0.70;;;24.70;39.30;;;;;;4899134;28;44984;-59
2022/06/01 11:40:15;;;;;;;0.80;0.80;;;24.70;39.50;;;;;;4895630;28;46048;-59
2022/06/01 11:42:45;;;;;;;0.70;0.70;;;24.70;39.40;;;;;;4881848;28;45204;-58
2022/06/01 11:45:20;;;;;;;0.80;0.80;;;24.70;39.20;;;;;;4897989;28;45569;-59
2022/06/01 11:48:09;;;;;;;0.85;0.65;;;24.80;39.30;;;;;;4897489;28;45384;-59
2022/06/01 11:50:55;;;;;;;0.50;0.50;;;24.80;39.00;;;;;;4910579;28;47140;-59
2022/06/01 11:53:29;;;;;;;0.85;0.50;;;24.80;39.00;;;;;;4907239;28;45247;-59
2022/06/01 11:56:32;;;;;;;0.70;0.70;;;24.80;39.30;;;;;;4915141;28;45310;-59
2022/06/01 11:59:15;;;;;;;0.50;0.50;;;24.80;39.10;;;;;;4886856;28;45318;-59
2022/06/01 12:01:44;;;;;;;1.10;0.57;;;24.80;39.10;;;;;;4916545;28;46007;-59
2022/06/01 12:04:16;;;;;;;1.45;0.77;;;24.80;39.20;;;;;;4916810;28;45506;-59
2022/06/01 12:06:56;;;;;;;1.02;0.65;;;24.80;39.10;;;;;;4903276;28;45581;-60
2022/06/01 12:09:43;;;;;;;1.55;0.80;;;24.80;39.00;;;;;;4904946;28;45336;-59
2022/06/01 12:12:34;;;;;;;2.00;0.70;;;24.90;38.90;;;;;;4918492;28;46017;-59
2022/06/01 12:15:21;;;;;;;0.90;0.60;;;24.90;38.80;;;;;;4916377;28;45314;-60
2022/06/01 12:18:07;;;;;;;0.73;0.60;;;24.90;39.00;;;;;;4918147;28;45253;-60
2022/06/01 12:20:33;;;;;;;0.65;0.50;;;24.90;38.90;;;;;;4914571;28;44821;-59
2022/06/01 12:28:56;;;;;;;2.10;0.80;;;24.90;39.10;;;;;;4917098;28;44784;-60
2022/06/01 12:31:38;;;;;;;0.70;0.70;;;24.90;38.70;;;;;;4906681;28;45794;-59
2022/06/01 12:34:13;;;;;;;0.70;0.70;;;25.00;38.80;;;;;;4889043;28;47125;-60
2022/06/01 12:36:53;;;;;;;0.77;0.50;;;25.00;39.00;;;;;;4909771;28;45317;-59
2022/06/01 12:39:37;;;;;;;0.88;0.60;;;25.00;38.90;;;;;;4906339;28;45387;-60
2022/06/01 12:42:20;;;;;;;0.52;0.52;;;25.00;38.90;;;;;;4909486;28;45140;-59
2022/06/01 12:44:47;;;;;;;0.75;0.60;;;25.00;38.70;;;;;;4898773;28;46236;-59
2022/06/01 12:47:26;;;;;;;1.48;0.60;;;25.00;38.90;;;;;;4876893;28;45371;-60
2022/06/01 12:49:51;;;;;;;1.90;1.05;;;25.10;38.80;;;;;;4893689;28;45626;-60
2022/06/01 12:52:19;;;;;;;1.05;0.60;;;25.10;39.00;;;;;;4906423;28;46004;-58
2022/06/01 12:54:55;;;;;;;1.38;0.43;;;25.10;38.80;;;;;;4917827;28;46251;-58
2022/06/01 12:57:39;;;;;;;2.72;0.70;;;25.10;38.80;;;;;;4909811;28;44800;-62
2022/06/01 13:00:08;;;;;;;1.38;0.63;;;25.20;38.70;;;;;;4911196;28;45435;-57
2022/06/01 13:02:34;;;;;;;0.98;0.77;;;25.10;38.80;;;;;;4906462;28;45519;-57
2022/06/01 13:05:00;;;;;;;0.63;0.63;;;25.10;38.80;;;;;;4910389;28;45955;-59
2022/06/01 13:07:35;;;;;;;1.65;0.70;;;25.10;39.10;;;;;;4910210;28;45863;-58
2022/06/01 13:10:18;;;;;;;0.57;0.55;;;25.10;38.80;;;;;;4910566;28;46258;-60
2022/06/01 13:12:43;;;;;;;0.73;0.50;;;25.20;38.80;;;;;;4895518;28;45803;-59
2022/06/01 13:15:18;;;;;;;0.88;0.77;;;25.20;38.80;;;;;;4909712;28;46330;-59
2022/06/01 13:17:59;;;;;;;0.90;0.60;;;25.20;38.70;;;;;;4908921;28;44788;-59
2022/06/01 13:20:53;;;;;;;3.42;0.52;;;25.20;38.70;;;;;;4909574;28;45230;-60
2022/06/01 13:23:58;;;;;;;0.63;0.47;;;25.20;38.60;;;;;;4910666;28;46058;-58
2022/06/01 13:26:36;;;;;;;2.90;0.77;;;25.20;38.70;;;;;;4854773;29;45932;-58
2022/06/01 13:29:26;;;;;;;0.60;0.60;;;25.20;38.70;;;;;;4890932;28;46572;-58
2022/06/01 13:32:19;;;;;;;0.45;0.45;;;25.30;38.50;;;;;;4896425;28;45379;-59
2022/06/01 13:34:52;;;;;;;0.68;0.60;;;25.20;38.70;;;;;;4896731;28;45060;-58
2022/06/01 13:37:21;;;;;;;0.40;0.40;;;25.30;38.70;;;;;;4912760;28;46038;-60
2022/06/01 13:40:07;;;;;;;1.38;0.70;;;25.30;38.70;;;;;;4910388;28;45465;-61
2022/06/01 13:42:37;;;;;;;1.23;0.60;;;25.30;38.60;;;;;;4890239;28;45405;-58
2022/06/01 13:45:03;;;;;;;1.55;0.40;;;25.20;38.70;;;;;;4907596;28;45901;-59
2022/06/01 13:47:55;;;;;;;0.88;0.60;;;25.30;38.70;;;;;;4908640;28;46176;-59
2022/06/01 13:50:29;;;;;;;1.35;0.50;;;25.30;38.50;;;;;;4904646;28;44890;-61
2022/06/01 13:52:54;;;;;;;0.80;0.60;;;25.30;38.70;;;;;;4879874;28;45296;-60
2022/06/01 13:55:29;;;;;;;0.57;0.57;;;25.30;38.80;;;;;;4909951;28;45192;-58
2022/06/01 13:57:56;;;;;;;0.98;0.55;;;25.30;38.70;;;;;;4907521;28;45887;-60
2022/06/01 14:00:32;;;;;;;1.58;0.50;;;25.30;38.80;;;;;;4907059;28;45935;-60
2022/06/01 14:03:22;;;;;;;0.93;0.60;;;25.30;38.70;;;;;;4907894;28;45801;-61
2022/06/01 14:05:50;;;;;;;0.60;0.60;;;25.40;38.70;;;;;;4905463;28;46346;-59
2022/06/01 14:08:26;;;;;;;1.50;0.90;;;25.40;38.80;;;;;;4908092;28;45936;-59
2022/06/01 14:10:51;;;;;;;1.05;0.60;;;25.40;38.70;;;;;;4906554;28;45025;-60
2022/06/01 14:13:18;;;;;;;0.60;0.50;;;25.40;38.80;;;;;;4907039;28;45390;-59
2022/06/01 14:15:45;;;;;;;0.75;0.52;;;25.40;38.80;;;;;;4901142;28;46394;-60
2022/06/01 14:18:13;;;;;;;0.40;0.40;;;25.40;38.80;;;;;;4877798;28;45229;-60
2022/06/01 14:20:39;;;;;;;1.52;0.60;;;25.40;38.70;;;;;;4894759;28;45302;-61
2022/06/01 14:23:10;;;;;;;0.77;0.60;;;25.40;38.80;;;;;;4900475;28;47125;-61
2022/06/01 14:28:29;;;;;;;1.23;0.50;;;25.40;38.70;;;;;;4908349;28;46212;-60
2022/06/01 14:30:55;;;;;;;1.52;0.60;;;25.40;38.70;;;;;;4907838;28;45262;-60
2022/06/01 14:33:21;;;;;;;1.08;0.70;;;25.40;38.70;;;;;;4906347;28;45590;-61
2022/06/01 14:35:46;;;;;;;0.90;0.63;;;25.40;38.70;;;;;;4907682;28;45294;-60
2022/06/01 14:38:12;;;;;;;1.60;0.60;;;25.40;38.70;;;;;;4908972;28;47174;-61
2022/06/01 14:40:37;;;;;;;1.00;0.70;;;25.40;38.70;;;;;;4907384;28;45705;-61
2022/06/01 14:43:05;;;;;;;0.85;0.60;;;25.40;38.70;;;;;;4894941;28;45564;-61
2022/06/01 14:45:30;;;;;;;1.38;0.65;;;25.40;38.70;;;;;;4895967;28;45294;-62
2022/06/01 14:47:56;;;;;;;0.70;0.70;;;25.40;38.70;;;;;;4907933;28;45984;-60
2022/06/01 14:50:21;;;;;;;0.95;0.57;;;25.40;38.60;;;;;;4894679;28;45110;-61
2022/06/01 14:52:47;;;;;;;1.15;0.77;;;25.40;38.60;;;;;;4894756;28;45045;-60
2022/06/01 14:55:14;;;;;;;1.00;0.60;;;25.40;39.00;;;;;;4909247;28;46029;-59
2022/06/01 14:57:40;;;;;;;2.08;0.52;;;25.50;38.70;;;;;;4894970;28;45475;-61
2022/06/01 15:00:06;;;;;;;1.50;0.60;;;25.50;38.70;;;;;;4908628;28;45294;-60
2022/06/01 15:02:32;;;;;;;0.80;0.52;;;25.50;38.70;;;;;;4906670;28;46605;-61
2022/06/01 15:05:01;;;;;;;1.20;0.40;;;25.50;38.70;;;;;;4894416;28;45485;-60
2022/06/01 15:07:26;;;;;;;0.68;0.68;;;25.50;38.70;;;;;;4904900;28;45919;-61
2022/06/01 15:09:52;;;;;;;1.02;0.40;;;25.50;38.70;;;;;;4890330;28;45125;-60
2022/06/01 15:12:19;;;;;;;0.60;0.50;;;25.50;38.60;;;;;;4907579;28;45494;-60
2022/06/01 15:14:44;;;;;;;0.57;0.57;;;25.50;38.60;;;;;;4908295;28;45347;-59
2022/06/01 15:17:22;;;;;;;0.40;0.40;;;25.50;38.60;;;;;;4908247;28;46298;-62
2022/06/01 15:19:48;;;;;;;;;;;25.60;38.40;;;;;;4890709;28;45233;-63
2022/06/01 15:22:13;;;;;;;;;;;25.50;38.30;;;;;;4904493;28;45703;-63
2022/06/01 15:24:39;;;;;;;;;;;25.50;38.30;;;;;;4913292;28;46424;-63
2022/06/01 15:27:04;;;;;;;;;;;25.50;38.40;;;;;;4892130;28;46071;-63
2022/06/01 15:40:26;;;;;;;;;;;25.40;38.30;;;;;;4914637;28;45134;-64
2022/06/01 15:42:52;;;;;;;;;;;25.40;38.40;;;;;;4910981;28;45403;-63
2022/06/01 15:45:17;;;;;;;;;;;25.40;38.40;;;;;;4898111;28;44771;-63
2022/06/01 15:48:06;;;;;;;;;;;25.40;38.40;;;;;;4910623;28;46434;-62
2022/06/01 15:50:31;;;;;;;;;;;25.40;38.50;;;;;;4910633;28;45378;-63
2022/06/01 15:52:57;;;;;;;;;;;25.40;38.40;;;;;;4894979;28;45368;-62
2022/06/01 15:55:22;;;;;;;;;;;25.40;38.40;;;;;;4911672;28;46682;-62
2022/06/01 15:57:48;;;;;;;;;;;25.40;38.40;;;;;;4910941;28;46069;-64
2022/06/01 16:00:14;;;;;;;;;;;25.40;38.40;;;;;;4910262;28;45348;-63
2022/06/01 16:02:39;;;;;;;;;;;25.40;38.30;;;;;;4909424;28;45768;-64
2022/06/01 16:05:05;;;;;;;;;;;25.40;38.30;;;;;;4897674;28;45569;-63
2022/06/01 16:07:30;;;;;;;;;;;25.40;38.30;;;;;;4910584;28;46070;-64
2022/06/01 16:09:56;;;;;;;;;;;25.40;38.30;;;;;;4910420;28;45181;-63
2022/06/01 16:12:21;;;;;;;;;;;25.40;38.30;;;;;;4896231;28;44820;-63
2022/06/01 16:14:47;;;;;;;;;;;25.40;38.20;;;;;;4911223;28;45024;-63
2022/06/01 16:17:23;;;;;;;;;;;25.40;38.10;;;;;;4910270;28;45459;-63
2022/06/01 16:19:48;;;;;;;;;;;25.40;38.10;;;;;;4897577;28;45650;-63
2022/06/01 16:22:14;;;;;;;;;;;25.40;38.10;;;;;;4892324;28;46271;-63
2022/06/01 16:24:39;;;;;;;;;;;25.40;38.00;;;;;;4908651;28;45240;-64
2022/06/01 16:27:05;;;;;;;;;;;25.40;38.00;;;;;;4910121;28;46056;-63
2022/06/01 16:29:30;;;;;;;;;;;25.40;38.00;;;;;;4902792;28;45364;-63
2022/06/01 16:31:56;;;;;;;;;;;25.40;38.00;;;;;;4892235;28;45704;-63
2022/06/01 16:34:21;;;;;;;;;;;25.40;37.90;;;;;;4908274;28;46183;-63
2022/06/01 16:36:47;;;;;;;;;;;25.40;38.00;;;;;;4910175;28;46115;-62
2022/06/01 16:39:14;;;;;;;;;;;25.40;37.90;;;;;;4883498;28;45773;-62
2022/06/01 16:41:43;;;;;;;;;;;25.40;37.90;;;;;;4905445;28;46350;-65
2022/06/01 16:44:09;;;;;;;;;;;25.40;38.00;;;;;;4903417;28;46118;-63
2022/06/01 16:46:35;;;;;;;;;;;25.40;38.00;;;;;;4902953;28;46220;-62
2022/06/01 16:49:00;;;;;;;;;;;25.40;38.10;;;;;;4903559;28;45320;-64